الصفحة الرئيسية
METAR-TAF:

METAR-TAF

مطار :

مطار أكادير المسيرة الدولي

أغادير, المغرب

دائرة عرض: 30-20N, خط طول: 009-24W, ارتفاع: 74 متر

مراقبة الطقس الحالي

تاريخ ووقت الإصدار 40 دقيقة قبل الساعة 13:30UTC
ريح 15 عقدة من الغرب, الاتجاه يتراوح بين الجنوب الغربي و الغرب/الشمال الغربي
درجة الحرارة 20°درجة مئوية
الرطوبة 56%
ضغط 1014 hPa
الرؤية 10 كم أو أكثر
غيوم متفرقة على ارتفاع 3000 قدم

METAR: GMAD 061330Z 26015KT 230V290 9999 SCT030 20/11 Q1014 NOSIG

زمن: 15:10 (14:10 UTC)

توقعات

تاريخ ووقت الإصدار 3ساعات و 10 دقيقة قبل الساعة 11:00UTC
التوقعات صالحة من06 الساعة 12 UTC إلى 07 الساعة 18 UTC
ريح 14 عقدة من الغرب
الرؤية 10 كم أو أكثر
غيوم متفرقة على ارتفاع 2000 قدم
غيوم متفرقة على ارتفاع 8000 قدم
مؤقت
من 06 الساعة 12 UTC إلى 06 الساعة 24 UTC
الرؤية: 4000 متر
غيوم مفككة على ارتفاع 1600 قدم, مزن ركامية عمودية.
زخات من المطر

TAF: GMAD 061100Z 0612/0718 26014KT 9999 SCT020 SCT080 TEMPO 0612/0624 4000 SHRA BKN016TCU

أرصاد الطقس والتوقعات من أكثر من 4000 مطار (تقارير الطقس للمطار METAR والتنبؤ بالطقس بالمطارTAF).

المحطات المتاحة هي النقط الصفراء والحمراء على الخريطة.

حرك المؤشر فوق النقطة لمعرفة اسم المحطة.

ثم انقر لمعرفة أرصاد وتوقعات الطقس.

لتغيير الخارطة: اضغط على الأزرار الخضراء مع رمز الصليب الأسود للتكبير. على الزر الأخضر مع شرطة للتصغير، أو على الأسهم الخضراء للخرائط المجاورة.


METAR-TAF: